sensor_id;sensor_type;location;lat;lon;timestamp;P1;durP1;ratioP1;P2;durP2;ratioP2
36799;SDS011;22752;51.960;5.886;2024-03-08T00:01:59;39.60;;;22.83;;
36799;SDS011;22752;51.960;5.886;2024-03-08T00:04:25;39.00;;;21.73;;
36799;SDS011;22752;51.960;5.886;2024-03-08T00:06:51;41.50;;;23.40;;
36799;SDS011;22752;51.960;5.886;2024-03-08T00:09:17;38.90;;;22.87;;
36799;SDS011;22752;51.960;5.886;2024-03-08T00:11:43;35.63;;;21.47;;
36799;SDS011;22752;51.960;5.886;2024-03-08T00:14:08;36.93;;;22.43;;
36799;SDS011;22752;51.960;5.886;2024-03-08T00:16:34;38.53;;;22.13;;
36799;SDS011;22752;51.960;5.886;2024-03-08T00:19:03;39.40;;;22.87;;
36799;SDS011;22752;51.960;5.886;2024-03-08T00:21:29;38.13;;;22.80;;
36799;SDS011;22752;51.960;5.886;2024-03-08T00:23:54;40.27;;;23.33;;
36799;SDS011;22752;51.960;5.886;2024-03-08T00:26:20;39.47;;;22.37;;
36799;SDS011;22752;51.960;5.886;2024-03-08T00:28:49;36.00;;;22.30;;
36799;SDS011;22752;51.960;5.886;2024-03-08T00:31:15;36.83;;;21.40;;
36799;SDS011;22752;51.960;5.886;2024-03-08T00:33:43;40.77;;;23.83;;
36799;SDS011;22752;51.960;5.886;2024-03-08T00:36:09;41.13;;;22.47;;
36799;SDS011;22752;51.960;5.886;2024-03-08T00:38:34;38.17;;;22.23;;
36799;SDS011;22752;51.960;5.886;2024-03-08T00:41:00;39.97;;;22.83;;
36799;SDS011;22752;51.960;5.886;2024-03-08T00:43:27;39.03;;;23.77;;
36799;SDS011;22752;51.960;5.886;2024-03-08T00:45:52;36.93;;;23.33;;
36799;SDS011;22752;51.960;5.886;2024-03-08T00:48:18;34.33;;;22.70;;
36799;SDS011;22752;51.960;5.886;2024-03-08T00:50:44;39.23;;;23.43;;
36799;SDS011;22752;51.960;5.886;2024-03-08T00:53:11;37.37;;;21.87;;
36799;SDS011;22752;51.960;5.886;2024-03-08T00:55:37;37.23;;;23.20;;
36799;SDS011;22752;51.960;5.886;2024-03-08T00:58:03;33.77;;;21.10;;
36799;SDS011;22752;51.960;5.886;2024-03-08T01:00:29;39.97;;;22.70;;
36799;SDS011;22752;51.960;5.886;2024-03-08T01:02:55;38.60;;;23.77;;
36799;SDS011;22752;51.960;5.886;2024-03-08T01:05:21;35.30;;;22.40;;
36799;SDS011;22752;51.960;5.886;2024-03-08T01:07:49;38.10;;;22.77;;
36799;SDS011;22752;51.960;5.886;2024-03-08T01:10:15;35.67;;;20.73;;
36799;SDS011;22752;51.960;5.886;2024-03-08T01:12:41;36.13;;;21.80;;
36799;SDS011;22752;51.960;5.886;2024-03-08T01:15:08;33.77;;;22.17;;
36799;SDS011;22752;51.960;5.886;2024-03-08T01:17:35;36.33;;;22.03;;
36799;SDS011;22752;51.960;5.886;2024-03-08T01:20:02;38.17;;;22.53;;
36799;SDS011;22752;51.960;5.886;2024-03-08T01:22:28;35.03;;;22.80;;
36799;SDS011;22752;51.960;5.886;2024-03-08T01:24:55;35.77;;;22.10;;
36799;SDS011;22752;51.960;5.886;2024-03-08T01:27:21;32.80;;;21.70;;
36799;SDS011;22752;51.960;5.886;2024-03-08T01:29:47;34.80;;;20.63;;
36799;SDS011;22752;51.960;5.886;2024-03-08T01:32:13;40.17;;;23.53;;
36799;SDS011;22752;51.960;5.886;2024-03-08T01:34:39;34.90;;;23.37;;
36799;SDS011;22752;51.960;5.886;2024-03-08T01:37:05;37.23;;;22.83;;
36799;SDS011;22752;51.960;5.886;2024-03-08T01:39:31;35.20;;;23.00;;
36799;SDS011;22752;51.960;5.886;2024-03-08T01:41:57;35.07;;;22.63;;
36799;SDS011;22752;51.960;5.886;2024-03-08T01:44:23;34.50;;;23.10;;
36799;SDS011;22752;51.960;5.886;2024-03-08T01:46:49;36.03;;;20.83;;
36799;SDS011;22752;51.960;5.886;2024-03-08T01:49:17;37.43;;;23.37;;
36799;SDS011;22752;51.960;5.886;2024-03-08T01:51:45;40.50;;;23.53;;
36799;SDS011;22752;51.960;5.886;2024-03-08T01:54:14;34.77;;;20.97;;
36799;SDS011;22752;51.960;5.886;2024-03-08T01:56:41;31.43;;;21.30;;
36799;SDS011;22752;51.960;5.886;2024-03-08T01:59:07;33.80;;;21.70;;
36799;SDS011;22752;51.960;5.886;2024-03-08T02:01:33;31.00;;;21.37;;
36799;SDS011;22752;51.960;5.886;2024-03-08T02:03:59;32.37;;;21.03;;
36799;SDS011;22752;51.960;5.886;2024-03-08T02:06:25;33.70;;;21.27;;
36799;SDS011;22752;51.960;5.886;2024-03-08T02:08:51;33.70;;;22.17;;
36799;SDS011;22752;51.960;5.886;2024-03-08T02:11:17;35.00;;;22.17;;
36799;SDS011;22752;51.960;5.886;2024-03-08T02:13:44;31.50;;;21.33;;
36799;SDS011;22752;51.960;5.886;2024-03-08T02:16:10;35.53;;;22.70;;
36799;SDS011;22752;51.960;5.886;2024-03-08T02:18:36;38.77;;;23.47;;
36799;SDS011;22752;51.960;5.886;2024-03-08T02:21:04;36.37;;;23.53;;
36799;SDS011;22752;51.960;5.886;2024-03-08T02:23:32;35.17;;;23.27;;
36799;SDS011;22752;51.960;5.886;2024-03-08T02:25:58;32.43;;;21.37;;
36799;SDS011;22752;51.960;5.886;2024-03-08T02:28:24;32.23;;;22.73;;
36799;SDS011;22752;51.960;5.886;2024-03-08T02:30:50;34.13;;;22.33;;
36799;SDS011;22752;51.960;5.886;2024-03-08T02:33:20;36.43;;;23.47;;
36799;SDS011;22752;51.960;5.886;2024-03-08T02:35:47;34.07;;;22.67;;
36799;SDS011;22752;51.960;5.886;2024-03-08T02:38:14;33.87;;;23.97;;
36799;SDS011;22752;51.960;5.886;2024-03-08T02:40:47;34.73;;;23.57;;
36799;SDS011;22752;51.960;5.886;2024-03-08T02:43:15;34.97;;;24.70;;
36799;SDS011;22752;51.960;5.886;2024-03-08T02:45:43;35.93;;;24.47;;
36799;SDS011;22752;51.960;5.886;2024-03-08T02:48:12;30.87;;;21.87;;
36799;SDS011;22752;51.960;5.886;2024-03-08T02:50:38;36.07;;;22.20;;
36799;SDS011;22752;51.960;5.886;2024-03-08T02:53:13;34.53;;;23.63;;
36799;SDS011;22752;51.960;5.886;2024-03-08T02:55:39;35.00;;;21.87;;
36799;SDS011;22752;51.960;5.886;2024-03-08T02:58:06;35.13;;;22.77;;
36799;SDS011;22752;51.960;5.886;2024-03-08T03:00:35;33.27;;;22.67;;
36799;SDS011;22752;51.960;5.886;2024-03-08T03:03:02;34.87;;;23.90;;
36799;SDS011;22752;51.960;5.886;2024-03-08T03:05:28;37.53;;;22.53;;
36799;SDS011;22752;51.960;5.886;2024-03-08T03:07:55;35.80;;;23.83;;
36799;SDS011;22752;51.960;5.886;2024-03-08T03:10:21;35.10;;;22.97;;
36799;SDS011;22752;51.960;5.886;2024-03-08T03:12:48;34.37;;;22.80;;
36799;SDS011;22752;51.960;5.886;2024-03-08T03:15:14;33.00;;;22.90;;
36799;SDS011;22752;51.960;5.886;2024-03-08T03:17:45;33.13;;;23.73;;
36799;SDS011;22752;51.960;5.886;2024-03-08T03:20:12;36.03;;;24.67;;
36799;SDS011;22752;51.960;5.886;2024-03-08T03:22:39;35.77;;;24.73;;
36799;SDS011;22752;51.960;5.886;2024-03-08T03:25:12;34.67;;;23.93;;
36799;SDS011;22752;51.960;5.886;2024-03-08T03:27:37;35.07;;;25.10;;
36799;SDS011;22752;51.960;5.886;2024-03-08T03:30:05;37.17;;;23.43;;
36799;SDS011;22752;51.960;5.886;2024-03-08T03:32:47;36.57;;;24.20;;
36799;SDS011;22752;51.960;5.886;2024-03-08T03:35:13;32.40;;;23.33;;
36799;SDS011;22752;51.960;5.886;2024-03-08T03:37:42;34.73;;;24.30;;
36799;SDS011;22752;51.960;5.886;2024-03-08T03:40:10;37.13;;;23.90;;
36799;SDS011;22752;51.960;5.886;2024-03-08T03:42:38;35.33;;;24.57;;
36799;SDS011;22752;51.960;5.886;2024-03-08T03:45:05;33.37;;;23.53;;
36799;SDS011;22752;51.960;5.886;2024-03-08T03:47:31;35.30;;;24.00;;
36799;SDS011;22752;51.960;5.886;2024-03-08T03:49:57;37.80;;;24.80;;
36799;SDS011;22752;51.960;5.886;2024-03-08T03:52:26;37.80;;;25.17;;
36799;SDS011;22752;51.960;5.886;2024-03-08T03:54:52;34.83;;;23.60;;
36799;SDS011;22752;51.960;5.886;2024-03-08T03:57:18;35.20;;;23.50;;
36799;SDS011;22752;51.960;5.886;2024-03-08T03:59:45;36.97;;;24.57;;
36799;SDS011;22752;51.960;5.886;2024-03-08T04:02:12;33.13;;;22.60;;
36799;SDS011;22752;51.960;5.886;2024-03-08T04:04:38;34.37;;;24.20;;
36799;SDS011;22752;51.960;5.886;2024-03-08T04:07:04;36.27;;;25.03;;
36799;SDS011;22752;51.960;5.886;2024-03-08T04:09:30;39.73;;;26.47;;
36799;SDS011;22752;51.960;5.886;2024-03-08T04:11:55;38.07;;;24.87;;
36799;SDS011;22752;51.960;5.886;2024-03-08T04:14:21;38.27;;;25.53;;
36799;SDS011;22752;51.960;5.886;2024-03-08T04:16:48;38.67;;;24.90;;
36799;SDS011;22752;51.960;5.886;2024-03-08T04:19:13;37.63;;;26.37;;
36799;SDS011;22752;51.960;5.886;2024-03-08T04:21:39;36.07;;;23.83;;
36799;SDS011;22752;51.960;5.886;2024-03-08T04:24:05;33.17;;;23.33;;
36799;SDS011;22752;51.960;5.886;2024-03-08T04:26:31;37.23;;;26.63;;
36799;SDS011;22752;51.960;5.886;2024-03-08T04:28:57;33.27;;;24.50;;
36799;SDS011;22752;51.960;5.886;2024-03-08T04:31:22;34.40;;;24.03;;
36799;SDS011;22752;51.960;5.886;2024-03-08T04:33:48;36.93;;;26.17;;
36799;SDS011;22752;51.960;5.886;2024-03-08T04:36:14;38.43;;;25.63;;
36799;SDS011;22752;51.960;5.886;2024-03-08T04:38:40;33.40;;;24.47;;
36799;SDS011;22752;51.960;5.886;2024-03-08T04:41:06;35.33;;;23.93;;
36799;SDS011;22752;51.960;5.886;2024-03-08T04:43:32;38.83;;;27.37;;
36799;SDS011;22752;51.960;5.886;2024-03-08T04:45:59;41.83;;;27.30;;
36799;SDS011;22752;51.960;5.886;2024-03-08T04:48:24;43.87;;;26.33;;
36799;SDS011;22752;51.960;5.886;2024-03-08T04:50:53;37.60;;;26.30;;
36799;SDS011;22752;51.960;5.886;2024-03-08T04:53:18;41.60;;;27.07;;
36799;SDS011;22752;51.960;5.886;2024-03-08T04:55:45;40.00;;;26.97;;
36799;SDS011;22752;51.960;5.886;2024-03-08T04:58:10;38.90;;;26.57;;
36799;SDS011;22752;51.960;5.886;2024-03-08T05:00:36;40.10;;;27.37;;
36799;SDS011;22752;51.960;5.886;2024-03-08T05:03:02;39.63;;;25.80;;
36799;SDS011;22752;51.960;5.886;2024-03-08T05:05:29;37.03;;;25.17;;
36799;SDS011;22752;51.960;5.886;2024-03-08T05:07:56;38.07;;;25.20;;
36799;SDS011;22752;51.960;5.886;2024-03-08T05:10:21;32.67;;;24.30;;
36799;SDS011;22752;51.960;5.886;2024-03-08T05:12:47;40.53;;;25.40;;
36799;SDS011;22752;51.960;5.886;2024-03-08T05:15:13;36.60;;;26.23;;
36799;SDS011;22752;51.960;5.886;2024-03-08T05:17:39;39.23;;;26.73;;
36799;SDS011;22752;51.960;5.886;2024-03-08T05:20:05;38.03;;;25.83;;
36799;SDS011;22752;51.960;5.886;2024-03-08T05:22:33;40.83;;;27.47;;
36799;SDS011;22752;51.960;5.886;2024-03-08T05:24:59;39.33;;;25.20;;
36799;SDS011;22752;51.960;5.886;2024-03-08T05:27:25;31.47;;;22.97;;
36799;SDS011;22752;51.960;5.886;2024-03-08T05:29:51;38.70;;;26.33;;
36799;SDS011;22752;51.960;5.886;2024-03-08T05:32:17;36.33;;;25.27;;
36799;SDS011;22752;51.960;5.886;2024-03-08T05:34:43;34.70;;;24.50;;
36799;SDS011;22752;51.960;5.886;2024-03-08T05:37:09;38.60;;;26.20;;
36799;SDS011;22752;51.960;5.886;2024-03-08T05:39:36;40.93;;;26.00;;
36799;SDS011;22752;51.960;5.886;2024-03-08T05:42:02;40.03;;;26.47;;
36799;SDS011;22752;51.960;5.886;2024-03-08T05:44:27;38.93;;;26.67;;
36799;SDS011;22752;51.960;5.886;2024-03-08T05:46:56;39.67;;;25.83;;
36799;SDS011;22752;51.960;5.886;2024-03-08T05:49:22;41.03;;;26.53;;
36799;SDS011;22752;51.960;5.886;2024-03-08T05:51:47;34.97;;;24.33;;
36799;SDS011;22752;51.960;5.886;2024-03-08T05:54:13;43.00;;;29.43;;
36799;SDS011;22752;51.960;5.886;2024-03-08T05:56:39;34.97;;;25.10;;
36799;SDS011;22752;51.960;5.886;2024-03-08T05:59:09;41.67;;;27.57;;
36799;SDS011;22752;51.960;5.886;2024-03-08T06:01:35;40.13;;;28.87;;
36799;SDS011;22752;51.960;5.886;2024-03-08T06:04:01;41.07;;;27.10;;
36799;SDS011;22752;51.960;5.886;2024-03-08T06:06:28;40.20;;;25.80;;
36799;SDS011;22752;51.960;5.886;2024-03-08T06:08:54;39.70;;;27.63;;
36799;SDS011;22752;51.960;5.886;2024-03-08T06:11:24;37.97;;;26.33;;
36799;SDS011;22752;51.960;5.886;2024-03-08T06:13:53;39.97;;;27.10;;
36799;SDS011;22752;51.960;5.886;2024-03-08T06:16:24;38.30;;;27.53;;
36799;SDS011;22752;51.960;5.886;2024-03-08T06:18:55;41.83;;;27.00;;
36799;SDS011;22752;51.960;5.886;2024-03-08T06:21:23;40.97;;;25.93;;
36799;SDS011;22752;51.960;5.886;2024-03-08T06:23:51;40.10;;;26.70;;
36799;SDS011;22752;51.960;5.886;2024-03-08T06:26:20;40.77;;;27.63;;
36799;SDS011;22752;51.960;5.886;2024-03-08T06:28:47;40.83;;;27.37;;
36799;SDS011;22752;51.960;5.886;2024-03-08T06:31:13;41.23;;;27.50;;
36799;SDS011;22752;51.960;5.886;2024-03-08T06:33:39;39.03;;;26.60;;
36799;SDS011;22752;51.960;5.886;2024-03-08T06:36:05;45.17;;;28.60;;
36799;SDS011;22752;51.960;5.886;2024-03-08T06:38:32;43.50;;;29.23;;
36799;SDS011;22752;51.960;5.886;2024-03-08T06:40:57;45.30;;;29.43;;
36799;SDS011;22752;51.960;5.886;2024-03-08T06:43:23;43.73;;;29.20;;
36799;SDS011;22752;51.960;5.886;2024-03-08T06:45:55;42.00;;;27.97;;
36799;SDS011;22752;51.960;5.886;2024-03-08T06:48:20;38.67;;;26.73;;
36799;SDS011;22752;51.960;5.886;2024-03-08T06:50:46;41.50;;;27.83;;
36799;SDS011;22752;51.960;5.886;2024-03-08T06:53:13;42.63;;;27.63;;
36799;SDS011;22752;51.960;5.886;2024-03-08T06:55:39;45.60;;;29.47;;
36799;SDS011;22752;51.960;5.886;2024-03-08T06:58:05;42.10;;;29.40;;
36799;SDS011;22752;51.960;5.886;2024-03-08T07:00:32;41.10;;;28.73;;
36799;SDS011;22752;51.960;5.886;2024-03-08T07:02:58;38.80;;;25.80;;
36799;SDS011;22752;51.960;5.886;2024-03-08T07:05:27;46.63;;;28.93;;
36799;SDS011;22752;51.960;5.886;2024-03-08T07:07:53;42.53;;;27.63;;
36799;SDS011;22752;51.960;5.886;2024-03-08T07:10:20;38.70;;;26.60;;
36799;SDS011;22752;51.960;5.886;2024-03-08T07:12:48;39.13;;;27.23;;
36799;SDS011;22752;51.960;5.886;2024-03-08T07:15:14;40.67;;;27.53;;
36799;SDS011;22752;51.960;5.886;2024-03-08T07:17:41;41.33;;;27.23;;
36799;SDS011;22752;51.960;5.886;2024-03-08T07:20:09;43.30;;;30.00;;
36799;SDS011;22752;51.960;5.886;2024-03-08T07:22:37;44.77;;;30.47;;
36799;SDS011;22752;51.960;5.886;2024-03-08T07:25:06;42.80;;;30.00;;
36799;SDS011;22752;51.960;5.886;2024-03-08T07:27:33;38.53;;;27.53;;
36799;SDS011;22752;51.960;5.886;2024-03-08T07:30:04;45.60;;;29.30;;
36799;SDS011;22752;51.960;5.886;2024-03-08T07:32:31;46.90;;;30.83;;
36799;SDS011;22752;51.960;5.886;2024-03-08T07:34:56;40.83;;;28.27;;
36799;SDS011;22752;51.960;5.886;2024-03-08T07:37:23;42.37;;;28.63;;
36799;SDS011;22752;51.960;5.886;2024-03-08T07:39:49;45.57;;;30.33;;
36799;SDS011;22752;51.960;5.886;2024-03-08T07:42:15;40.83;;;28.80;;
36799;SDS011;22752;51.960;5.886;2024-03-08T07:44:42;45.53;;;30.93;;
36799;SDS011;22752;51.960;5.886;2024-03-08T07:47:08;39.13;;;28.03;;
36799;SDS011;22752;51.960;5.886;2024-03-08T07:49:35;42.87;;;29.17;;
36799;SDS011;22752;51.960;5.886;2024-03-08T07:52:02;42.33;;;28.03;;
36799;SDS011;22752;51.960;5.886;2024-03-08T07:54:29;41.70;;;29.27;;
36799;SDS011;22752;51.960;5.886;2024-03-08T07:56:55;42.83;;;29.97;;
36799;SDS011;22752;51.960;5.886;2024-03-08T07:59:21;41.13;;;28.77;;
36799;SDS011;22752;51.960;5.886;2024-03-08T08:01:47;42.10;;;28.87;;
36799;SDS011;22752;51.960;5.886;2024-03-08T08:04:13;42.13;;;28.13;;
36799;SDS011;22752;51.960;5.886;2024-03-08T08:06:40;42.37;;;28.67;;
36799;SDS011;22752;51.960;5.886;2024-03-08T08:09:08;45.17;;;29.03;;
36799;SDS011;22752;51.960;5.886;2024-03-08T08:11:43;45.47;;;30.17;;
36799;SDS011;22752;51.960;5.886;2024-03-08T08:14:09;41.90;;;28.43;;
36799;SDS011;22752;51.960;5.886;2024-03-08T08:16:37;40.50;;;27.00;;
36799;SDS011;22752;51.960;5.886;2024-03-08T08:19:06;40.23;;;28.83;;
36799;SDS011;22752;51.960;5.886;2024-03-08T08:21:35;42.13;;;28.33;;
36799;SDS011;22752;51.960;5.886;2024-03-08T08:24:02;38.77;;;28.37;;
36799;SDS011;22752;51.960;5.886;2024-03-08T08:26:29;41.50;;;28.37;;
36799;SDS011;22752;51.960;5.886;2024-03-08T08:28:55;44.87;;;30.87;;
36799;SDS011;22752;51.960;5.886;2024-03-08T08:31:21;42.20;;;29.10;;
36799;SDS011;22752;51.960;5.886;2024-03-08T08:33:46;44.27;;;30.47;;
36799;SDS011;22752;51.960;5.886;2024-03-08T08:36:14;40.13;;;28.10;;
36799;SDS011;22752;51.960;5.886;2024-03-08T08:38:39;46.47;;;29.93;;
36799;SDS011;22752;51.960;5.886;2024-03-08T08:41:08;41.53;;;28.83;;
36799;SDS011;22752;51.960;5.886;2024-03-08T08:43:36;40.90;;;29.60;;
36799;SDS011;22752;51.960;5.886;2024-03-08T08:46:01;39.03;;;27.90;;
36799;SDS011;22752;51.960;5.886;2024-03-08T08:48:27;41.83;;;27.50;;
36799;SDS011;22752;51.960;5.886;2024-03-08T08:50:54;37.67;;;26.23;;
36799;SDS011;22752;51.960;5.886;2024-03-08T08:53:20;41.70;;;27.30;;
36799;SDS011;22752;51.960;5.886;2024-03-08T08:55:47;39.80;;;28.53;;
36799;SDS011;22752;51.960;5.886;2024-03-08T08:58:12;38.60;;;27.03;;
36799;SDS011;22752;51.960;5.886;2024-03-08T09:00:39;38.30;;;27.87;;
36799;SDS011;22752;51.960;5.886;2024-03-08T09:03:05;40.77;;;27.83;;
36799;SDS011;22752;51.960;5.886;2024-03-08T09:05:32;39.77;;;28.07;;
36799;SDS011;22752;51.960;5.886;2024-03-08T09:07:59;38.50;;;26.80;;
36799;SDS011;22752;51.960;5.886;2024-03-08T09:10:25;39.53;;;28.17;;
36799;SDS011;22752;51.960;5.886;2024-03-08T09:12:52;38.90;;;27.63;;
36799;SDS011;22752;51.960;5.886;2024-03-08T09:15:18;38.60;;;26.53;;
36799;SDS011;22752;51.960;5.886;2024-03-08T09:17:45;40.03;;;27.70;;
36799;SDS011;22752;51.960;5.886;2024-03-08T09:20:12;40.43;;;27.37;;
36799;SDS011;22752;51.960;5.886;2024-03-08T09:22:43;38.70;;;27.37;;
36799;SDS011;22752;51.960;5.886;2024-03-08T09:25:09;41.17;;;27.47;;
36799;SDS011;22752;51.960;5.886;2024-03-08T09:27:35;39.33;;;27.17;;
36799;SDS011;22752;51.960;5.886;2024-03-08T09:30:00;37.10;;;26.30;;
36799;SDS011;22752;51.960;5.886;2024-03-08T09:32:26;40.40;;;27.67;;
36799;SDS011;22752;51.960;5.886;2024-03-08T09:34:52;37.37;;;27.63;;
36799;SDS011;22752;51.960;5.886;2024-03-08T09:37:18;41.77;;;28.10;;
36799;SDS011;22752;51.960;5.886;2024-03-08T09:39:44;38.63;;;27.87;;
36799;SDS011;22752;51.960;5.886;2024-03-08T09:42:10;36.80;;;24.83;;
36799;SDS011;22752;51.960;5.886;2024-03-08T09:44:39;36.37;;;25.57;;
36799;SDS011;22752;51.960;5.886;2024-03-08T09:47:12;35.03;;;24.60;;
36799;SDS011;22752;51.960;5.886;2024-03-08T09:49:39;34.00;;;23.90;;
36799;SDS011;22752;51.960;5.886;2024-03-08T09:52:06;33.37;;;23.47;;
36799;SDS011;22752;51.960;5.886;2024-03-08T09:54:32;35.63;;;25.03;;
36799;SDS011;22752;51.960;5.886;2024-03-08T09:56:59;34.47;;;25.10;;
36799;SDS011;22752;51.960;5.886;2024-03-08T09:59:24;31.07;;;22.70;;
36799;SDS011;22752;51.960;5.886;2024-03-08T10:01:51;28.87;;;21.17;;
36799;SDS011;22752;51.960;5.886;2024-03-08T10:04:24;32.13;;;22.77;;
36799;SDS011;22752;51.960;5.886;2024-03-08T10:06:51;28.27;;;20.77;;
36799;SDS011;22752;51.960;5.886;2024-03-08T10:09:17;31.70;;;21.60;;
36799;SDS011;22752;51.960;5.886;2024-03-08T10:11:43;39.67;;;23.93;;
36799;SDS011;22752;51.960;5.886;2024-03-08T10:14:10;31.30;;;23.60;;
36799;SDS011;22752;51.960;5.886;2024-03-08T10:16:36;29.80;;;23.40;;
36799;SDS011;22752;51.960;5.886;2024-03-08T10:19:03;37.27;;;25.27;;
36799;SDS011;22752;51.960;5.886;2024-03-08T10:21:30;34.33;;;23.77;;
36799;SDS011;22752;51.960;5.886;2024-03-08T10:23:58;29.07;;;22.80;;
36799;SDS011;22752;51.960;5.886;2024-03-08T10:26:24;32.27;;;22.30;;
36799;SDS011;22752;51.960;5.886;2024-03-08T10:28:53;30.70;;;21.70;;
36799;SDS011;22752;51.960;5.886;2024-03-08T10:31:19;30.97;;;22.80;;
36799;SDS011;22752;51.960;5.886;2024-03-08T10:33:46;28.73;;;20.57;;
36799;SDS011;22752;51.960;5.886;2024-03-08T10:36:13;29.67;;;21.07;;
36799;SDS011;22752;51.960;5.886;2024-03-08T10:38:40;28.53;;;21.70;;
36799;SDS011;22752;51.960;5.886;2024-03-08T10:41:08;28.30;;;20.40;;
36799;SDS011;22752;51.960;5.886;2024-03-08T10:49:25;28.30;;;19.73;;
36799;SDS011;22752;51.960;5.886;2024-03-08T10:51:55;25.83;;;18.57;;
36799;SDS011;22752;51.960;5.886;2024-03-08T10:54:23;26.50;;;19.67;;
36799;SDS011;22752;51.960;5.886;2024-03-08T10:56:51;30.10;;;21.70;;
36799;SDS011;22752;51.960;5.886;2024-03-08T10:59:17;29.40;;;21.07;;
36799;SDS011;22752;51.960;5.886;2024-03-08T11:01:45;30.27;;;20.57;;
36799;SDS011;22752;51.960;5.886;2024-03-08T11:04:11;27.80;;;20.67;;
36799;SDS011;22752;51.960;5.886;2024-03-08T11:09:03;35.47;;;20.67;;
36799;SDS011;22752;51.960;5.886;2024-03-08T11:11:47;28.43;;;20.23;;
36799;SDS011;22752;51.960;5.886;2024-03-08T11:14:42;28.43;;;19.50;;
36799;SDS011;22752;51.960;5.886;2024-03-08T11:17:08;25.80;;;18.70;;
36799;SDS011;22752;51.960;5.886;2024-03-08T11:19:33;27.33;;;19.03;;
36799;SDS011;22752;51.960;5.886;2024-03-08T11:22:02;24.50;;;18.40;;
36799;SDS011;22752;51.960;5.886;2024-03-08T11:24:36;26.67;;;19.13;;
36799;SDS011;22752;51.960;5.886;2024-03-08T11:27:05;28.43;;;19.60;;
36799;SDS011;22752;51.960;5.886;2024-03-08T11:29:32;25.47;;;18.80;;
36799;SDS011;22752;51.960;5.886;2024-03-08T11:32:03;24.17;;;16.67;;
36799;SDS011;22752;51.960;5.886;2024-03-08T11:34:32;23.83;;;17.37;;
36799;SDS011;22752;51.960;5.886;2024-03-08T11:36:58;22.97;;;16.37;;
36799;SDS011;22752;51.960;5.886;2024-03-08T11:39:24;22.57;;;15.73;;
36799;SDS011;22752;51.960;5.886;2024-03-08T11:41:51;24.33;;;16.70;;
36799;SDS011;22752;51.960;5.886;2024-03-08T11:44:17;21.40;;;15.83;;
36799;SDS011;22752;51.960;5.886;2024-03-08T11:46:43;22.80;;;15.87;;
36799;SDS011;22752;51.960;5.886;2024-03-08T11:49:13;19.83;;;14.83;;
36799;SDS011;22752;51.960;5.886;2024-03-08T11:51:39;21.30;;;15.60;;
36799;SDS011;22752;51.960;5.886;2024-03-08T11:54:06;21.83;;;15.50;;
36799;SDS011;22752;51.960;5.886;2024-03-08T11:56:36;23.90;;;14.83;;
36799;SDS011;22752;51.960;5.886;2024-03-08T11:59:02;26.07;;;16.17;;
36799;SDS011;22752;51.960;5.886;2024-03-08T12:01:28;19.67;;;13.87;;
36799;SDS011;22752;51.960;5.886;2024-03-08T12:03:54;21.33;;;16.13;;
36799;SDS011;22752;51.960;5.886;2024-03-08T12:06:23;21.67;;;15.77;;
36799;SDS011;22752;51.960;5.886;2024-03-08T12:08:50;19.37;;;14.37;;
36799;SDS011;22752;51.960;5.886;2024-03-08T12:11:16;19.00;;;13.77;;
36799;SDS011;22752;51.960;5.886;2024-03-08T12:13:47;21.73;;;15.27;;
36799;SDS011;22752;51.960;5.886;2024-03-08T12:16:15;22.80;;;15.33;;
36799;SDS011;22752;51.960;5.886;2024-03-08T12:18:47;20.95;;;14.52;;
36799;SDS011;22752;51.960;5.886;2024-03-08T12:21:13;26.53;;;17.73;;
36799;SDS011;22752;51.960;5.886;2024-03-08T12:23:42;22.17;;;15.90;;
36799;SDS011;22752;51.960;5.886;2024-03-08T12:26:12;19.40;;;14.77;;
36799;SDS011;22752;51.960;5.886;2024-03-08T12:28:40;21.43;;;15.50;;
36799;SDS011;22752;51.960;5.886;2024-03-08T12:31:13;27.17;;;17.03;;
36799;SDS011;22752;51.960;5.886;2024-03-08T12:33:53;21.37;;;15.53;;
36799;SDS011;22752;51.960;5.886;2024-03-08T12:36:21;20.17;;;14.93;;
36799;SDS011;22752;51.960;5.886;2024-03-08T12:38:47;24.57;;;16.40;;
36799;SDS011;22752;51.960;5.886;2024-03-08T12:41:13;22.67;;;16.33;;
36799;SDS011;22752;51.960;5.886;2024-03-08T12:43:40;22.70;;;16.43;;
36799;SDS011;22752;51.960;5.886;2024-03-08T12:46:06;22.10;;;16.37;;
36799;SDS011;22752;51.960;5.886;2024-03-08T12:48:36;18.33;;;14.13;;
36799;SDS011;22752;51.960;5.886;2024-03-08T12:51:05;20.17;;;15.10;;
36799;SDS011;22752;51.960;5.886;2024-03-08T12:53:32;20.23;;;15.10;;
36799;SDS011;22752;51.960;5.886;2024-03-08T12:55:58;21.13;;;15.80;;
36799;SDS011;22752;51.960;5.886;2024-03-08T12:58:24;20.80;;;16.77;;
36799;SDS011;22752;51.960;5.886;2024-03-08T13:00:51;21.73;;;16.10;;
36799;SDS011;22752;51.960;5.886;2024-03-08T13:03:17;23.60;;;16.80;;
36799;SDS011;22752;51.960;5.886;2024-03-08T13:05:42;22.20;;;15.97;;
36799;SDS011;22752;51.960;5.886;2024-03-08T13:08:08;21.80;;;16.90;;
36799;SDS011;22752;51.960;5.886;2024-03-08T13:10:41;22.17;;;16.67;;
36799;SDS011;22752;51.960;5.886;2024-03-08T13:13:11;20.03;;;14.93;;
36799;SDS011;22752;51.960;5.886;2024-03-08T13:15:40;25.00;;;17.97;;
36799;SDS011;22752;51.960;5.886;2024-03-08T13:18:06;20.80;;;16.13;;
36799;SDS011;22752;51.960;5.886;2024-03-08T13:20:34;25.73;;;15.37;;
36799;SDS011;22752;51.960;5.886;2024-03-08T13:23:02;18.73;;;13.83;;
36799;SDS011;22752;51.960;5.886;2024-03-08T13:25:30;22.10;;;17.10;;
36799;SDS011;22752;51.960;5.886;2024-03-08T13:27:56;21.80;;;13.90;;
36799;SDS011;22752;51.960;5.886;2024-03-08T13:30:24;25.37;;;16.87;;
36799;SDS011;22752;51.960;5.886;2024-03-08T13:32:54;28.90;;;18.23;;
36799;SDS011;22752;51.960;5.886;2024-03-08T13:35:20;26.43;;;15.63;;
36799;SDS011;22752;51.960;5.886;2024-03-08T13:37:55;23.00;;;14.20;;
36799;SDS011;22752;51.960;5.886;2024-03-08T13:40:20;21.73;;;16.10;;
36799;SDS011;22752;51.960;5.886;2024-03-08T13:42:46;21.90;;;16.03;;
36799;SDS011;22752;51.960;5.886;2024-03-08T13:45:14;23.37;;;17.27;;
36799;SDS011;22752;51.960;5.886;2024-03-08T13:47:42;21.03;;;15.40;;
36799;SDS011;22752;51.960;5.886;2024-03-08T13:50:10;22.87;;;15.83;;
36799;SDS011;22752;51.960;5.886;2024-03-08T13:52:41;22.43;;;16.63;;
36799;SDS011;22752;51.960;5.886;2024-03-08T13:55:09;22.27;;;16.90;;
36799;SDS011;22752;51.960;5.886;2024-03-08T13:57:34;22.10;;;16.07;;
36799;SDS011;22752;51.960;5.886;2024-03-08T14:00:00;23.73;;;14.90;;
36799;SDS011;22752;51.960;5.886;2024-03-08T14:02:26;21.40;;;14.97;;
36799;SDS011;22752;51.960;5.886;2024-03-08T14:04:54;24.33;;;16.17;;
36799;SDS011;22752;51.960;5.886;2024-03-08T14:07:20;18.60;;;14.13;;
36799;SDS011;22752;51.960;5.886;2024-03-08T14:09:46;24.30;;;16.07;;
36799;SDS011;22752;51.960;5.886;2024-03-08T14:12:11;24.07;;;16.17;;
36799;SDS011;22752;51.960;5.886;2024-03-08T14:14:38;23.17;;;15.70;;
36799;SDS011;22752;51.960;5.886;2024-03-08T14:17:07;19.83;;;14.50;;
36799;SDS011;22752;51.960;5.886;2024-03-08T14:19:34;20.30;;;15.50;;
36799;SDS011;22752;51.960;5.886;2024-03-08T14:22:00;18.47;;;13.57;;
36799;SDS011;22752;51.960;5.886;2024-03-08T14:24:29;20.80;;;14.37;;
36799;SDS011;22752;51.960;5.886;2024-03-08T14:26:55;20.83;;;14.03;;
36799;SDS011;22752;51.960;5.886;2024-03-08T14:29:24;19.85;;;15.38;;